Potou, China
Current Conditions -  °F | °C
As of 2:30 PM on Thursday 27 Nov 2014 (Local Time) from ZBTJ Reporting Station
Light Rain Light Rain  
Wind Chill: 37°   Ceiling: 3000
Heat Index: 43°   Visibility: 6mi
Dew Point: 28°   Wind: 11mph
Humidity: 57%   Direction: 80°E
Pressure: 30.21"   Gusts: NA
Location:  38.08°N, 116.55°E
Report Text: ZBTJ 270630Z 08005MPS 9999 -RA OVC030 06/M02 Q1023 NOSIG
Loading
Personal Weather Stations






























Interactive Weather Map New forecast layout! Learn more

10-Day Weather Forecast

Advertisements
Track Severe Weather on mobile